createdAt,value
2023-05-23T00:02:02.010Z,3.65
2023-05-23T00:07:04.358Z,3.10
2023-05-23T00:12:07.040Z,3.70
2023-05-23T00:17:10.726Z,3.22
2023-05-23T00:22:12.637Z,3.28
2023-05-23T00:27:14.314Z,3.13
2023-05-23T00:32:16.051Z,3.67
2023-05-23T00:37:18.208Z,3.50
2023-05-23T00:42:19.856Z,3.45
2023-05-23T00:47:21.742Z,3.53
2023-05-23T00:52:23.486Z,3.55
2023-05-23T00:57:25.310Z,3.67
2023-05-23T01:02:28.356Z,3.28
2023-05-23T01:07:31.191Z,3.42
2023-05-23T01:12:55.915Z,2.90
2023-05-23T01:18:14.479Z,3.13
2023-05-23T01:23:52.436Z,3.42
2023-05-23T01:29:10.440Z,3.85
2023-05-23T01:34:13.764Z,3.25
2023-05-23T01:39:15.509Z,3.83
2023-05-23T01:44:19.699Z,3.88
2023-05-23T01:49:24.248Z,3.47
2023-05-23T01:54:29.416Z,3.67
2023-05-23T01:59:31.178Z,3.45
2023-05-23T02:04:33.147Z,4.22
2023-05-23T02:09:34.865Z,3.40
2023-05-23T02:14:37.526Z,3.20
2023-05-23T02:19:39.330Z,3.00
2023-05-23T02:24:41.110Z,3.50
2023-05-23T02:29:42.829Z,3.58
2023-05-23T02:34:51.015Z,3.58
2023-05-23T02:39:52.995Z,3.03
2023-05-23T02:44:54.736Z,3.08
2023-05-23T02:49:56.381Z,3.70
2023-05-23T02:54:58.425Z,3.10
2023-05-23T03:00:00.968Z,3.50
2023-05-23T03:05:03.253Z,3.42
2023-05-23T03:10:05.405Z,3.20
2023-05-23T03:15:07.528Z,3.40
2023-05-23T03:20:11.920Z,3.30
2023-05-23T03:25:16.304Z,4.70
2023-05-23T03:30:18.066Z,3.90
2023-05-23T03:35:19.989Z,3.90
2023-05-23T03:40:22.107Z,3.60
2023-05-23T03:45:23.783Z,2.97
2023-05-23T03:50:25.552Z,3.90
2023-05-23T03:55:27.536Z,3.92
2023-05-23T04:00:29.364Z,3.85
2023-05-23T04:05:32.959Z,4.47
2023-05-23T04:10:35.682Z,4.55
2023-05-23T04:15:37.493Z,4.40
2023-05-23T04:20:42.458Z,4.30
2023-05-23T04:25:44.377Z,4.22
2023-05-23T04:30:59.039Z,4.45
2023-05-23T04:36:03.671Z,5.60
2023-05-23T04:41:10.169Z,5.93
2023-05-23T04:46:28.977Z,5.40
2023-05-23T04:51:44.494Z,6.15
2023-05-23T04:57:03.591Z,5.35
2023-05-23T05:02:06.444Z,5.82
2023-05-23T05:07:08.661Z,5.45
2023-05-23T05:12:10.378Z,6.05
2023-05-23T05:17:12.968Z,6.30
2023-05-23T05:22:42.931Z,7.00
2023-05-23T05:27:47.136Z,6.57
2023-05-23T05:32:52.863Z,6.70
2023-05-23T05:37:54.611Z,6.65
2023-05-23T05:42:56.312Z,7.32
2023-05-23T05:47:59.220Z,6.63
2023-05-23T05:53:02.015Z,6.50
2023-05-23T05:58:04.202Z,6.35
2023-05-23T06:03:18.350Z,7.03
2023-05-23T06:08:28.831Z,6.22
2023-05-23T06:13:30.636Z,6.65
2023-05-23T06:18:32.529Z,6.90
2023-05-23T06:23:34.436Z,6.95
2023-05-23T06:28:39.794Z,7.85
2023-05-23T06:33:42.975Z,7.40
2023-05-23T06:38:45.824Z,6.60
2023-05-23T06:43:47.532Z,7.30
2023-05-23T06:49:10.743Z,7.53
2023-05-23T06:54:16.460Z,8.35
2023-05-23T06:59:19.772Z,6.88
2023-05-23T07:04:21.788Z,8.02
2023-05-23T07:09:24.082Z,8.27
2023-05-23T07:14:31.453Z,8.45
2023-05-23T07:19:33.264Z,8.95
2023-05-23T07:24:37.082Z,8.73
2023-05-23T07:29:41.198Z,8.88
2023-05-23T07:34:46.016Z,9.68
2023-05-23T07:39:47.984Z,9.57
2023-05-23T07:44:50.027Z,8.73
2023-05-23T07:49:52.333Z,9.18
2023-05-23T07:54:55.129Z,7.50
2023-05-23T07:59:57.270Z,8.43
2023-05-23T08:05:01.664Z,8.82
2023-05-23T08:10:04.575Z,8.82
2023-05-23T08:15:07.090Z,10.10
2023-05-23T08:20:15.939Z,8.50
2023-05-23T08:25:17.734Z,8.38
2023-05-23T08:30:23.108Z,8.43
2023-05-23T08:35:25.856Z,8.15
2023-05-23T08:40:30.757Z,8.27
2023-05-23T08:45:42.574Z,8.88
2023-05-23T08:50:47.729Z,8.27
2023-05-23T08:55:51.948Z,8.20
2023-05-23T09:00:55.509Z,8.18
2023-05-23T09:05:59.155Z,7.82
2023-05-23T09:11:03.979Z,7.82
2023-05-23T09:16:11.001Z,7.07
2023-05-23T09:21:16.800Z,8.68
2023-05-23T09:26:39.065Z,9.35
2023-05-23T09:31:40.958Z,9.50
2023-05-23T09:36:44.085Z,9.65
2023-05-23T09:41:48.961Z,9.43
2023-05-23T09:46:53.826Z,10.25
2023-05-23T09:52:00.349Z,10.00
2023-05-23T09:57:03.136Z,11.48
2023-05-23T10:02:08.257Z,12.93
2023-05-23T10:07:17.396Z,12.98
2023-05-23T10:12:55.780Z,12.43
2023-05-23T10:18:12.645Z,11.85
2023-05-23T10:23:15.640Z,11.90
2023-05-23T10:28:17.780Z,11.40
2023-05-23T10:33:19.907Z,11.18
2023-05-23T10:38:38.834Z,12.40
2023-05-23T10:43:40.478Z,12.30
2023-05-23T10:48:43.922Z,11.98
2023-05-23T10:53:47.127Z,12.30
2023-05-23T10:58:55.838Z,12.52
2023-05-23T11:04:05.622Z,11.57
2023-05-23T11:09:16.742Z,11.70
2023-05-23T11:14:19.041Z,11.50
2023-05-23T11:19:25.983Z,11.98
2023-05-23T11:24:53.888Z,12.00
2023-05-23T11:29:58.286Z,12.02
2023-05-23T11:35:08.165Z,12.13
2023-05-23T11:40:31.874Z,12.07
2023-05-23T11:45:35.715Z,11.68
2023-05-23T11:50:48.872Z,11.45
2023-05-23T11:55:53.713Z,11.43
2023-05-23T12:01:00.994Z,10.80
2023-05-23T12:06:02.802Z,11.15
2023-05-23T12:11:04.562Z,10.05
2023-05-23T12:16:06.360Z,10.93
2023-05-23T12:21:08.639Z,10.35
2023-05-23T12:26:10.791Z,10.82
2023-05-23T12:31:14.175Z,10.18
2023-05-23T12:36:22.798Z,10.25
2023-05-23T12:41:24.492Z,9.80
2023-05-23T12:46:27.588Z,10.93
2023-05-23T12:51:29.302Z,11.32
2023-05-23T12:56:31.477Z,10.95
2023-05-23T13:01:34.603Z,10.45
2023-05-23T13:06:36.382Z,10.73
2023-05-23T13:11:38.124Z,10.40
2023-05-23T13:16:40.635Z,9.60
2023-05-23T13:21:43.454Z,8.65
2023-05-23T13:26:45.141Z,7.70
2023-05-23T13:31:47.101Z,5.93
2023-05-23T13:36:48.816Z,5.72
2023-05-23T13:41:50.834Z,5.50
2023-05-23T13:46:52.755Z,5.50
2023-05-23T13:51:54.516Z,4.90
2023-05-23T13:56:56.172Z,5.20
2023-05-23T14:01:57.902Z,5.00
2023-05-23T14:06:59.693Z,5.25
2023-05-23T14:12:01.389Z,5.03
2023-05-23T14:17:03.394Z,4.78
2023-05-23T14:22:05.306Z,3.70
2023-05-23T14:27:09.424Z,4.78
2023-05-23T14:32:13.288Z,5.30
2023-05-23T14:37:15.128Z,5.03
2023-05-23T14:42:16.837Z,4.72
2023-05-23T14:47:18.510Z,5.18
2023-05-23T14:52:20.425Z,4.50
2023-05-23T14:57:22.179Z,4.60
2023-05-23T15:02:23.891Z,4.40
2023-05-23T15:07:26.150Z,4.10
2023-05-23T15:12:28.626Z,4.82
2023-05-23T15:17:31.204Z,4.40
2023-05-23T15:27:37.503Z,4.20
2023-05-23T15:32:39.207Z,5.40
2023-05-23T15:37:42.649Z,5.80
2023-05-23T15:42:44.386Z,5.63
2023-05-23T15:47:46.062Z,5.97
2023-05-23T15:52:47.727Z,5.50
2023-05-23T15:57:49.470Z,4.78
2023-05-23T16:02:51.256Z,5.10
2023-05-23T16:07:52.997Z,5.25
2023-05-23T16:12:54.821Z,5.10
2023-05-23T16:17:56.544Z,6.50
2023-05-23T16:22:58.269Z,5.68
2023-05-23T16:28:00.554Z,5.80
2023-05-23T16:33:02.481Z,6.00
2023-05-23T16:38:04.173Z,5.47
2023-05-23T16:43:05.883Z,5.53
2023-05-23T16:48:07.672Z,5.57
2023-05-23T16:53:09.424Z,5.47
2023-05-23T16:58:12.250Z,6.68
2023-05-23T17:03:14.090Z,6.35
2023-05-23T17:08:15.912Z,5.78
2023-05-23T17:13:17.674Z,4.97
2023-05-23T17:18:19.441Z,4.85
2023-05-23T17:23:21.444Z,5.00
2023-05-23T17:28:23.267Z,5.00
2023-05-23T17:33:24.999Z,5.70
2023-05-23T17:38:26.904Z,4.68
2023-05-23T17:43:28.604Z,4.80
2023-05-23T17:48:45.809Z,5.32
2023-05-23T17:53:51.696Z,5.30
2023-05-23T17:58:53.362Z,5.97
2023-05-23T18:03:55.041Z,5.75
2023-05-23T18:08:56.997Z,5.95
2023-05-23T18:13:58.696Z,6.10
2023-05-23T18:19:00.529Z,6.15
2023-05-23T18:24:04.029Z,5.75
2023-05-23T18:29:05.951Z,5.88
2023-05-23T18:34:07.734Z,6.07
2023-05-23T18:39:09.859Z,6.95
2023-05-23T18:44:11.529Z,5.80
2023-05-23T18:49:13.287Z,5.07
2023-05-23T18:54:14.975Z,5.07
2023-05-23T18:59:16.980Z,6.00
2023-05-23T19:04:18.778Z,4.38
2023-05-23T19:09:20.806Z,5.22
2023-05-23T19:14:22.623Z,5.13
2023-05-23T19:19:24.354Z,5.82
2023-05-23T19:24:26.380Z,5.25
2023-05-23T19:29:28.207Z,5.13
2023-05-23T19:34:29.908Z,5.38
2023-05-23T19:39:31.547Z,4.53
2023-05-23T19:44:33.176Z,4.88
2023-05-23T19:49:34.903Z,4.70
2023-05-23T19:54:37.010Z,5.00
2023-05-23T19:59:38.726Z,5.75
2023-05-23T20:04:40.905Z,4.57
2023-05-23T20:09:42.527Z,5.45
2023-05-23T20:14:44.191Z,4.60
2023-05-23T20:19:46.953Z,4.53
2023-05-23T20:24:48.632Z,5.28
2023-05-23T20:29:51.225Z,5.35
2023-05-23T20:34:53.160Z,4.85
2023-05-23T20:39:54.777Z,5.45
2023-05-23T20:44:57.096Z,4.75
2023-05-23T20:49:58.864Z,4.93
2023-05-23T20:55:01.117Z,5.22
2023-05-23T21:00:10.344Z,4.70
2023-05-23T21:05:12.535Z,6.50
2023-05-23T21:10:14.352Z,5.63
2023-05-23T21:15:17.143Z,5.30
2023-05-23T21:20:22.797Z,4.60
2023-05-23T21:25:24.587Z,5.13
2023-05-23T21:30:26.606Z,5.80
2023-05-23T21:35:28.487Z,5.18
2023-05-23T21:40:30.180Z,6.00
2023-05-23T21:45:31.873Z,6.15
2023-05-23T21:50:33.559Z,5.20
2023-05-23T21:55:35.231Z,5.95
2023-05-23T22:00:36.880Z,5.53
2023-05-23T22:05:38.572Z,5.93
2023-05-23T22:10:40.721Z,6.57
2023-05-23T22:15:42.774Z,5.80
2023-05-23T22:20:44.839Z,6.32
2023-05-23T22:25:46.582Z,6.10
2023-05-23T22:30:48.238Z,4.88
2023-05-23T22:35:49.984Z,5.28
2023-05-23T22:40:51.637Z,5.20
2023-05-23T22:45:53.313Z,5.93
2023-05-23T22:50:55.155Z,5.97
2023-05-23T22:55:57.985Z,5.38
2023-05-23T23:00:59.729Z,5.57
2023-05-23T23:06:01.505Z,5.00
2023-05-23T23:11:03.878Z,5.40
2023-05-23T23:16:06.508Z,6.07
2023-05-23T23:21:08.173Z,5.93
2023-05-23T23:26:09.887Z,5.50
2023-05-23T23:31:11.596Z,5.20
2023-05-23T23:36:13.366Z,5.50
2023-05-23T23:41:15.052Z,5.35
2023-05-23T23:46:18.760Z,5.47
2023-05-23T23:51:20.629Z,5.28
2023-05-23T23:56:22.756Z,4.97
